createdAt,value
2019-04-20T00:01:25.747Z,8.20
2019-04-20T00:03:50.701Z,8.20
2019-04-20T00:06:19.632Z,8.30
2019-04-20T00:08:55.497Z,8.20
2019-04-20T00:11:27.331Z,8.10
2019-04-20T00:13:57.735Z,8.00
2019-04-20T00:16:18.942Z,7.90
2019-04-20T00:18:52.128Z,7.70
2019-04-20T00:21:38.851Z,7.60
2019-04-20T00:24:20.052Z,7.50
2019-04-20T00:27:08.488Z,7.50
2019-04-20T00:29:29.422Z,7.50
2019-04-20T00:31:56.702Z,7.30
2019-04-20T00:34:24.098Z,7.10
2019-04-20T00:36:45.311Z,7.10
2019-04-20T00:39:16.426Z,7.00
2019-04-20T00:41:51.501Z,7.00
2019-04-20T00:44:20.702Z,6.80
2019-04-20T00:46:58.520Z,6.80
2019-04-20T00:49:30.684Z,6.70
2019-04-20T00:52:17.177Z,6.80
2019-04-20T00:54:16.011Z,6.80
2019-04-20T00:56:47.739Z,6.80
2019-04-20T00:59:30.225Z,6.80
2019-04-20T01:02:03.928Z,6.80
2019-04-20T01:04:38.966Z,6.80
2019-04-20T01:07:06.293Z,6.80
2019-04-20T01:09:31.458Z,6.80
2019-04-20T01:11:58.588Z,6.70
2019-04-20T01:14:37.800Z,6.50
2019-04-20T01:17:07.005Z,6.40
2019-04-20T01:19:27.424Z,6.40
2019-04-20T01:22:02.374Z,6.40
2019-04-20T01:24:34.796Z,6.40
2019-04-20T01:27:00.816Z,6.50
2019-04-20T01:29:36.957Z,6.50
2019-04-20T01:32:12.799Z,6.30
2019-04-20T01:34:42.747Z,6.30
2019-04-20T01:37:14.661Z,6.10
2019-04-20T01:39:37.102Z,6.10
2019-04-20T01:42:00.633Z,6.20
2019-04-20T01:44:35.934Z,6.20
2019-04-20T01:47:03.165Z,6.20
2019-04-20T01:49:32.924Z,6.20
2019-04-20T01:52:07.515Z,6.10
2019-04-20T01:54:48.385Z,6.10
2019-04-20T01:57:24.794Z,6.10
2019-04-20T01:59:58.293Z,6.10
2019-04-20T02:02:28.326Z,6.10
2019-04-20T02:05:04.804Z,6.20
2019-04-20T02:07:35.085Z,6.30
2019-04-20T02:10:03.672Z,6.30
2019-04-20T02:12:33.848Z,6.40
2019-04-20T02:15:02.751Z,6.60
2019-04-20T02:17:38.540Z,6.70
2019-04-20T02:20:15.631Z,6.60
2019-04-20T02:22:46.417Z,6.50
2019-04-20T02:24:59.595Z,6.30
2019-04-20T02:27:36.906Z,6.20
2019-04-20T02:30:29.834Z,6.10
2019-04-20T02:33:09.468Z,5.90
2019-04-20T02:36:10.348Z,5.70
2019-04-20T02:38:42.191Z,5.40
2019-04-20T02:43:24.932Z,5.40
2019-04-20T02:45:53.388Z,5.40
2019-04-20T02:48:25.935Z,5.40
2019-04-20T02:53:36.385Z,5.50
2019-04-20T02:55:55.531Z,5.30
2019-04-20T02:58:34.404Z,5.30
2019-04-20T03:00:52.606Z,5.30
2019-04-20T03:03:11.299Z,5.30
2019-04-20T03:05:39.452Z,5.30
2019-04-20T03:08:17.423Z,5.40
2019-04-20T03:10:58.527Z,5.20
2019-04-20T03:13:18.316Z,5.00
2019-04-20T03:15:48.537Z,4.90
2019-04-20T03:18:19.262Z,4.90
2019-04-20T03:20:53.081Z,4.90
2019-04-20T03:23:33.542Z,4.80
2019-04-20T03:25:58.323Z,4.70
2019-04-20T03:28:23.593Z,4.70
2019-04-20T03:31:36.780Z,4.70
2019-04-20T03:33:51.409Z,4.60
2019-04-20T03:36:16.256Z,4.60
2019-04-20T03:38:33.090Z,4.60
2019-04-20T03:40:54.258Z,4.60
2019-04-20T03:43:12.379Z,4.70
2019-04-20T03:45:49.826Z,4.70
2019-04-20T03:48:32.575Z,4.70
2019-04-20T03:51:04.588Z,4.60
2019-04-20T03:53:35.071Z,4.60
2019-04-20T03:56:05.148Z,4.60
2019-04-20T03:58:45.611Z,4.70
2019-04-20T04:01:33.266Z,4.60
2019-04-20T04:03:59.900Z,4.60
2019-04-20T04:06:19.833Z,4.60
2019-04-20T04:08:48.622Z,4.60
2019-04-20T04:11:24.422Z,4.60
2019-04-20T04:13:37.713Z,4.60
2019-04-20T04:16:10.161Z,4.50
2019-04-20T04:18:40.794Z,4.40
2019-04-20T04:21:11.500Z,4.40
2019-04-20T04:23:56.229Z,4.40
2019-04-20T04:26:26.156Z,4.30
2019-04-20T04:28:53.412Z,4.30
2019-04-20T04:31:28.086Z,4.20
2019-04-20T04:33:59.321Z,4.20
2019-04-20T04:36:21.091Z,4.20
2019-04-20T04:39:01.037Z,4.40
2019-04-20T04:41:28.218Z,4.40
2019-04-20T04:43:53.959Z,4.40
2019-04-20T04:46:08.521Z,4.40
2019-04-20T04:48:43.979Z,4.30
2019-04-20T04:51:19.607Z,4.20
2019-04-20T04:53:52.458Z,4.20
2019-04-20T04:56:16.933Z,4.10
2019-04-20T04:58:42.629Z,4.20
2019-04-20T05:01:18.771Z,4.30
2019-04-20T05:04:02.832Z,4.30
2019-04-20T05:06:26.505Z,4.30
2019-04-20T05:08:49.834Z,4.20
2019-04-20T05:11:13.593Z,4.30
2019-04-20T05:13:50.596Z,4.30
2019-04-20T05:16:27.518Z,4.40
2019-04-20T05:19:05.052Z,4.40
2019-04-20T05:21:38.869Z,4.50
2019-04-20T05:24:42.716Z,4.60
2019-04-20T05:27:23.017Z,5.10
2019-04-20T05:29:32.803Z,5.70
2019-04-20T05:32:05.902Z,6.20
2019-04-20T05:34:52.568Z,6.50
2019-04-20T05:37:27.218Z,6.80
2019-04-20T05:39:55.868Z,7.10
2019-04-20T05:42:28.159Z,7.40
2019-04-20T05:45:08.633Z,7.70
2019-04-20T05:47:23.376Z,8.20
2019-04-20T05:49:50.112Z,8.40
2019-04-20T05:52:43.832Z,8.70
2019-04-20T05:54:56.233Z,8.90
2019-04-20T05:57:31.910Z,9.10
2019-04-20T06:00:03.563Z,9.30
2019-04-20T06:02:22.862Z,9.40
2019-04-20T06:07:26.830Z,9.70
2019-04-20T06:09:59.423Z,9.90
2019-04-20T06:12:28.430Z,10.10
2019-04-20T06:15:05.580Z,10.30
2019-04-20T06:17:53.102Z,10.60
2019-04-20T06:20:33.434Z,10.80
2019-04-20T06:23:09.421Z,11.00
2019-04-20T06:28:05.153Z,11.30
2019-04-20T06:30:31.962Z,11.50
2019-04-20T06:34:10.116Z,11.60
2019-04-20T06:39:13.471Z,11.50
2019-04-20T06:41:26.513Z,11.40
2019-04-20T06:43:45.817Z,11.30
2019-04-20T06:46:19.534Z,11.30
2019-04-20T06:48:49.319Z,11.30
2019-04-20T06:51:18.677Z,11.40
2019-04-20T06:53:47.561Z,11.40
2019-04-20T06:56:27.600Z,11.50
2019-04-20T06:58:58.797Z,11.60
2019-04-20T07:01:19.737Z,11.70
2019-04-20T07:04:04.251Z,11.70
2019-04-20T07:09:00.650Z,12.10
2019-04-20T07:11:25.118Z,12.20
2019-04-20T07:13:45.879Z,12.40
2019-04-20T07:16:28.319Z,12.40
2019-04-20T07:19:15.365Z,12.40
2019-04-20T07:24:48.314Z,12.60
2019-04-20T07:27:06.353Z,12.80
2019-04-20T07:29:43.257Z,13.10
2019-04-20T07:32:03.997Z,13.30
2019-04-20T07:34:38.726Z,13.50
2019-04-20T07:37:40.214Z,13.80
2019-04-20T07:39:44.880Z,14.20
2019-04-20T07:42:16.807Z,14.60
2019-04-20T07:44:49.888Z,14.90
2019-04-20T07:47:13.818Z,15.20
2019-04-20T07:49:41.362Z,15.40
2019-04-20T07:51:52.227Z,15.60
2019-04-20T07:54:50.716Z,15.80
2019-04-20T07:57:10.230Z,16.00
2019-04-20T07:59:30.022Z,16.20
2019-04-20T08:02:24.957Z,16.30
2019-04-20T08:04:42.495Z,16.40
2019-04-20T08:07:03.409Z,16.50
2019-04-20T08:09:37.393Z,16.70
2019-04-20T08:12:26.466Z,16.80
2019-04-20T08:14:56.801Z,16.90
2019-04-20T08:17:30.336Z,17.00
2019-04-20T08:19:48.439Z,17.00
2019-04-20T08:22:24.624Z,17.10
2019-04-20T08:24:45.371Z,17.20
2019-04-20T08:27:06.522Z,17.30
2019-04-20T08:29:45.160Z,17.40
2019-04-20T08:32:28.286Z,17.50
2019-04-20T08:35:05.082Z,17.60
2019-04-20T08:37:28.792Z,17.70
2019-04-20T08:42:39.946Z,17.80
2019-04-20T08:45:03.886Z,17.90
2019-04-20T08:47:45.877Z,17.90
2019-04-20T08:50:12.003Z,18.00
2019-04-20T08:52:55.463Z,18.20
2019-04-20T08:55:04.715Z,18.40
2019-04-20T08:57:15.968Z,18.40
2019-04-20T08:59:48.249Z,18.40
2019-04-20T09:02:17.070Z,18.50
2019-04-20T09:04:56.411Z,18.50
2019-04-20T09:07:22.608Z,18.50
2019-04-20T09:10:14.657Z,18.60
2019-04-20T09:12:35.428Z,18.70
2019-04-20T09:14:48.793Z,18.80
2019-04-20T09:17:32.583Z,18.80
2019-04-20T09:20:06.066Z,19.00
2019-04-20T09:22:40.262Z,19.10
2019-04-20T09:27:40.590Z,19.00
2019-04-20T09:30:20.895Z,19.20
2019-04-20T09:32:58.871Z,19.30
2019-04-20T09:35:30.163Z,19.50
2019-04-20T09:38:00.239Z,19.60
2019-04-20T09:40:35.500Z,19.70
2019-04-20T09:42:47.946Z,19.70
2019-04-20T09:45:27.756Z,19.80
2019-04-20T09:47:52.879Z,20.00
2019-04-20T09:50:31.841Z,20.00
2019-04-20T09:53:04.994Z,20.10
2019-04-20T09:55:31.219Z,20.10
2019-04-20T09:58:01.093Z,20.20
2019-04-20T10:00:39.805Z,20.30
2019-04-20T10:02:50.527Z,20.40
2019-04-20T10:05:19.802Z,20.50
2019-04-20T10:07:56.867Z,20.70
2019-04-20T10:10:28.760Z,20.70
2019-04-20T10:12:50.059Z,20.80
2019-04-20T10:15:23.078Z,20.80
2019-04-20T10:17:49.892Z,20.90
2019-04-20T10:20:24.405Z,21.00
2019-04-20T10:22:48.881Z,21.00
2019-04-20T10:25:18.331Z,21.10
2019-04-20T10:27:47.466Z,21.20
2019-04-20T10:30:16.699Z,21.20
2019-04-20T10:32:48.986Z,21.30
2019-04-20T10:35:18.303Z,21.40
2019-04-20T10:38:03.636Z,21.50
2019-04-20T10:40:43.246Z,21.50
2019-04-20T10:43:03.145Z,21.60
2019-04-20T10:45:33.063Z,21.60
2019-04-20T10:48:01.656Z,21.70
2019-04-20T10:50:32.146Z,21.70
2019-04-20T10:53:01.536Z,21.70
2019-04-20T10:55:31.330Z,21.70
2019-04-20T10:57:59.953Z,21.80
2019-04-20T11:00:46.094Z,21.80
2019-04-20T11:03:15.845Z,21.90
2019-04-20T11:05:44.833Z,21.90
2019-04-20T11:08:14.740Z,21.80
2019-04-20T11:10:55.456Z,21.80
2019-04-20T11:13:15.187Z,21.90
2019-04-20T11:15:44.318Z,21.90
2019-04-20T11:18:13.367Z,22.00
2019-04-20T11:20:42.002Z,22.00
2019-04-20T11:23:10.743Z,22.10
2019-04-20T11:25:40.022Z,22.10
2019-04-20T11:28:08.480Z,22.30
2019-04-20T11:30:38.052Z,22.40
2019-04-20T11:33:06.724Z,22.40
2019-04-20T11:35:39.208Z,22.40
2019-04-20T11:38:05.557Z,22.50
2019-04-20T11:40:35.030Z,22.50
2019-04-20T11:43:03.862Z,22.60
2019-04-20T11:45:32.979Z,22.70
2019-04-20T11:48:01.580Z,22.80
2019-04-20T11:50:30.011Z,22.80
2019-04-20T11:52:59.316Z,22.80
2019-04-20T11:55:28.637Z,22.80
2019-04-20T11:57:58.280Z,22.90
2019-04-20T12:00:46.903Z,23.00
2019-04-20T12:03:25.021Z,23.00
2019-04-20T12:05:53.156Z,23.00
2019-04-20T12:08:18.480Z,23.00
2019-04-20T12:10:52.034Z,23.20
2019-04-20T12:13:18.469Z,23.20
2019-04-20T12:15:47.683Z,23.20
2019-04-20T12:18:17.969Z,23.30
2019-04-20T12:20:47.078Z,23.40
2019-04-20T12:23:16.009Z,23.40
2019-04-20T12:25:46.190Z,23.40
2019-04-20T12:28:15.769Z,23.50
2019-04-20T12:30:44.265Z,23.60
2019-04-20T12:33:13.606Z,23.60
2019-04-20T12:35:42.681Z,23.70
2019-04-20T12:38:11.171Z,23.70
2019-04-20T12:40:39.936Z,23.80
2019-04-20T12:43:08.961Z,23.80
2019-04-20T12:45:37.843Z,23.90
2019-04-20T12:48:07.909Z,24.00
2019-04-20T12:50:37.422Z,24.00
2019-04-20T12:53:06.506Z,24.20
2019-04-20T12:55:35.084Z,24.20
2019-04-20T12:58:04.842Z,24.20
2019-04-20T13:00:45.893Z,24.10
2019-04-20T13:03:14.945Z,24.20
2019-04-20T13:05:43.805Z,24.30
2019-04-20T13:08:13.742Z,24.30
2019-04-20T13:10:44.798Z,24.50
2019-04-20T13:13:23.980Z,24.60
2019-04-20T13:15:54.362Z,24.70
2019-04-20T13:18:27.450Z,24.70
2019-04-20T13:20:58.050Z,24.60
2019-04-20T13:23:26.821Z,24.50
2019-04-20T13:25:55.432Z,24.50
2019-04-20T13:28:26.090Z,24.60
2019-04-20T13:30:54.045Z,24.70
2019-04-20T13:33:23.105Z,24.70
2019-04-20T13:35:52.318Z,24.60
2019-04-20T13:38:22.392Z,24.60
2019-04-20T13:40:51.480Z,24.70
2019-04-20T13:43:20.095Z,24.60
2019-04-20T13:45:48.974Z,24.70
2019-04-20T13:48:17.532Z,24.70
2019-04-20T13:50:46.399Z,24.70
2019-04-20T13:53:15.037Z,24.70
2019-04-20T13:55:43.632Z,24.90
2019-04-20T13:58:14.001Z,25.00
2019-04-20T14:00:50.360Z,25.10
2019-04-20T14:03:18.817Z,25.00
2019-04-20T14:05:48.781Z,25.00
2019-04-20T14:08:21.133Z,24.90
2019-04-20T14:10:49.673Z,25.00
2019-04-20T14:13:20.415Z,25.10
2019-04-20T14:15:49.232Z,25.20
2019-04-20T14:18:19.321Z,25.30
2019-04-20T14:20:48.019Z,25.50
2019-04-20T14:23:17.062Z,25.60
2019-04-20T14:25:46.959Z,25.50
2019-04-20T14:28:15.592Z,25.50
2019-04-20T14:30:44.128Z,25.50
2019-04-20T14:33:12.844Z,25.40
2019-04-20T14:35:41.466Z,25.50
2019-04-20T14:38:10.290Z,25.50
2019-04-20T14:40:39.747Z,25.60
2019-04-20T14:43:08.900Z,25.80
2019-04-20T14:45:38.548Z,26.00
2019-04-20T14:48:07.913Z,26.10
2019-04-20T14:50:37.961Z,26.30
2019-04-20T14:53:07.431Z,26.30
2019-04-20T14:55:35.901Z,26.60
2019-04-20T14:58:06.073Z,27.40
2019-04-20T15:00:45.799Z,28.20
2019-04-20T15:03:28.509Z,28.50
2019-04-20T15:06:00.092Z,28.90
2019-04-20T15:08:30.296Z,29.90
2019-04-20T15:10:58.890Z,30.00
2019-04-20T15:13:28.756Z,30.30
2019-04-20T15:15:58.919Z,31.30
2019-04-20T15:18:33.519Z,31.20
2019-04-20T15:21:03.840Z,31.20
2019-04-20T15:23:33.193Z,30.70
2019-04-20T15:26:02.429Z,29.70
2019-04-20T15:28:32.369Z,29.00
2019-04-20T15:31:00.937Z,28.30
2019-04-20T15:33:30.759Z,27.80
2019-04-20T15:36:00.037Z,27.70
2019-04-20T15:38:29.154Z,27.60
2019-04-20T15:40:57.720Z,27.30
2019-04-20T15:43:27.840Z,27.20
2019-04-20T15:45:57.344Z,27.40
2019-04-20T15:48:26.024Z,27.70
2019-04-20T15:50:55.991Z,27.50
2019-04-20T15:53:25.824Z,27.40
2019-04-20T15:55:55.602Z,27.00
2019-04-20T15:58:24.235Z,26.50
2019-04-20T16:00:52.827Z,26.50
2019-04-20T16:03:39.189Z,26.20
2019-04-20T16:06:09.534Z,25.90
2019-04-20T16:08:42.256Z,25.70
2019-04-20T16:11:11.268Z,25.50
2019-04-20T16:13:44.024Z,25.30
2019-04-20T16:16:10.152Z,25.10
2019-04-20T16:18:39.174Z,24.90
2019-04-20T16:21:13.232Z,24.70
2019-04-20T16:23:42.965Z,24.60
2019-04-20T16:26:29.395Z,24.70
2019-04-20T16:28:59.577Z,24.70
2019-04-20T16:31:28.802Z,24.70
2019-04-20T16:33:58.735Z,24.60
2019-04-20T16:36:28.473Z,24.80
2019-04-20T16:38:57.406Z,25.50
2019-04-20T16:41:26.400Z,26.00
2019-04-20T16:43:55.410Z,25.70
2019-04-20T16:46:25.669Z,25.40
2019-04-20T16:48:55.027Z,25.10
2019-04-20T16:51:24.946Z,24.70
2019-04-20T16:53:53.939Z,24.30
2019-04-20T16:56:22.596Z,24.20
2019-04-20T16:58:54.575Z,24.10
2019-04-20T17:01:21.561Z,24.00
2019-04-20T17:03:58.997Z,23.80
2019-04-20T17:06:20.754Z,23.70
2019-04-20T17:08:49.418Z,23.60
2019-04-20T17:11:21.638Z,23.60
2019-04-20T17:13:54.766Z,23.50
2019-04-20T17:16:21.738Z,23.40
2019-04-20T17:18:51.851Z,23.30
2019-04-20T17:21:25.258Z,23.20
2019-04-20T17:23:51.303Z,23.10
2019-04-20T17:26:23.008Z,23.10
2019-04-20T17:28:55.455Z,23.00
2019-04-20T17:31:27.674Z,22.90
2019-04-20T17:34:04.661Z,22.90
2019-04-20T17:36:31.137Z,22.80
2019-04-20T17:39:01.478Z,22.70
2019-04-20T17:41:48.926Z,22.70
2019-04-20T17:44:16.982Z,22.60
2019-04-20T17:46:43.613Z,22.50
2019-04-20T17:49:14.859Z,22.50
2019-04-20T17:51:54.859Z,22.40
2019-04-20T17:54:19.877Z,22.30
2019-04-20T17:56:48.727Z,22.20
2019-04-20T17:59:17.284Z,22.10
2019-04-20T18:02:02.792Z,21.90
2019-04-20T18:04:55.929Z,21.90
2019-04-20T18:07:04.348Z,21.80
2019-04-20T18:09:44.781Z,21.70
2019-04-20T18:11:58.549Z,21.60
2019-04-20T18:14:40.120Z,21.50
2019-04-20T18:17:11.468Z,21.50
2019-04-20T18:19:42.857Z,21.40
2019-04-20T18:22:13.852Z,21.20
2019-04-20T18:25:07.590Z,21.10
2019-04-20T18:27:31.967Z,21.00
2019-04-20T18:30:03.737Z,20.90
2019-04-20T18:32:23.639Z,20.70
2019-04-20T18:35:00.849Z,20.60
2019-04-20T18:37:28.766Z,20.40
2019-04-20T18:40:04.989Z,20.30
2019-04-20T18:42:32.856Z,19.90
2019-04-20T18:45:20.049Z,19.50
2019-04-20T18:47:45.579Z,19.10
2019-04-20T18:50:09.498Z,18.80
2019-04-20T18:52:29.449Z,18.60
2019-04-20T18:54:59.377Z,18.40
2019-04-20T18:57:29.666Z,18.00
2019-04-20T18:59:59.179Z,17.80
2019-04-20T19:02:33.570Z,17.60
2019-04-20T19:05:00.323Z,17.40
2019-04-20T19:07:33.355Z,17.30
2019-04-20T19:10:05.755Z,17.10
2019-04-20T19:12:39.592Z,16.90
2019-04-20T19:15:27.941Z,16.60
2019-04-20T19:17:52.117Z,16.40
2019-04-20T19:20:14.052Z,16.20
2019-04-20T19:22:44.019Z,15.80
2019-04-20T19:25:18.379Z,15.50
2019-04-20T19:27:48.857Z,15.20
2019-04-20T19:30:24.578Z,14.90
2019-04-20T19:33:02.395Z,14.70
2019-04-20T19:35:26.110Z,14.50
2019-04-20T19:37:56.233Z,14.20
2019-04-20T19:40:28.720Z,14.10
2019-04-20T19:42:59.312Z,14.00
2019-04-20T19:45:41.723Z,14.00
2019-04-20T19:48:04.369Z,13.90
2019-04-20T19:50:56.056Z,13.80
2019-04-20T19:53:12.524Z,13.80
2019-04-20T19:55:31.495Z,13.80
2019-04-20T19:58:02.571Z,13.60
2019-04-20T20:00:20.894Z,13.30
2019-04-20T20:02:49.968Z,13.00
2019-04-20T20:05:25.042Z,12.80
2019-04-20T20:07:52.123Z,12.70
2019-04-20T20:10:20.822Z,12.60
2019-04-20T20:12:55.099Z,12.60
2019-04-20T20:15:26.090Z,12.50
2019-04-20T20:18:14.051Z,12.30
2019-04-20T20:20:41.470Z,12.30
2019-04-20T20:22:53.420Z,12.20
2019-04-20T20:25:25.731Z,12.30
2019-04-20T20:27:57.534Z,12.40
2019-04-20T20:30:27.900Z,12.30
2019-04-20T20:33:04.801Z,12.10
2019-04-20T20:35:25.403Z,12.20
2019-04-20T20:37:56.990Z,12.30
2019-04-20T20:40:29.758Z,12.40
2019-04-20T20:43:04.813Z,12.30
2019-04-20T20:45:32.822Z,12.10
2019-04-20T20:48:09.451Z,11.70
2019-04-20T20:50:42.424Z,11.60
2019-04-20T20:53:06.020Z,11.40
2019-04-20T20:55:32.060Z,11.20
2019-04-20T20:57:59.218Z,11.10
2019-04-20T21:00:34.260Z,11.10
2019-04-20T21:03:00.866Z,11.00
2019-04-20T21:05:23.996Z,11.00
2019-04-20T21:07:53.417Z,10.80
2019-04-20T21:10:30.061Z,10.70
2019-04-20T21:12:56.517Z,10.60
2019-04-20T21:15:24.602Z,10.60
2019-04-20T21:18:16.342Z,10.60
2019-04-20T21:20:45.300Z,10.50
2019-04-20T21:23:09.929Z,10.40
2019-04-20T21:25:33.267Z,10.40
2019-04-20T21:27:55.057Z,10.30
2019-04-20T21:30:32.474Z,10.20
2019-04-20T21:32:59.987Z,10.10
2019-04-20T21:35:24.032Z,10.00
2019-04-20T21:38:00.471Z,10.00
2019-04-20T21:40:30.140Z,10.10
2019-04-20T21:43:00.341Z,10.10
2019-04-20T21:45:29.061Z,10.20
2019-04-20T21:47:54.583Z,10.30
2019-04-20T21:50:40.616Z,10.40
2019-04-20T21:52:58.557Z,10.20
2019-04-20T21:55:23.761Z,10.00
2019-04-20T21:57:55.465Z,9.90
2019-04-20T22:00:45.661Z,9.90
2019-04-20T22:03:11.871Z,9.70
2019-04-20T22:05:42.290Z,9.50
2019-04-20T22:08:14.062Z,9.40
2019-04-20T22:10:41.263Z,9.30
2019-04-20T22:13:09.945Z,9.20
2019-04-20T22:15:46.701Z,9.00
2019-04-20T22:18:12.596Z,8.90
2019-04-20T22:20:53.230Z,8.70
2019-04-20T22:23:21.580Z,8.60
2019-04-20T22:25:56.296Z,8.60
2019-04-20T22:28:09.331Z,8.50
2019-04-20T22:30:37.962Z,8.50
2019-04-20T22:33:08.187Z,8.40
2019-04-20T22:35:44.393Z,8.30
2019-04-20T22:38:18.848Z,8.30
2019-04-20T22:40:47.385Z,8.20
2019-04-20T22:43:17.979Z,8.20
2019-04-20T22:45:50.541Z,8.10
2019-04-20T22:48:18.016Z,8.00
2019-04-20T22:51:12.319Z,7.90
2019-04-20T22:53:33.951Z,8.00
2019-04-20T22:56:08.314Z,8.00
2019-04-20T22:58:28.885Z,7.90
2019-04-20T23:00:54.333Z,7.90
2019-04-20T23:03:17.235Z,7.80
2019-04-20T23:05:46.994Z,7.60
2019-04-20T23:08:16.912Z,7.60
2019-04-20T23:10:48.009Z,7.60
2019-04-20T23:13:15.738Z,7.70
2019-04-20T23:15:50.058Z,7.70
2019-04-20T23:18:14.324Z,7.70
2019-04-20T23:20:44.024Z,7.70
2019-04-20T23:23:19.147Z,7.60
2019-04-20T23:25:43.024Z,7.60
2019-04-20T23:28:14.773Z,7.50
2019-04-20T23:30:42.812Z,7.40
2019-04-20T23:33:11.877Z,7.40
2019-04-20T23:35:43.769Z,7.30
2019-04-20T23:38:15.793Z,7.20
2019-04-20T23:40:41.746Z,7.10
2019-04-20T23:43:33.343Z,7.10
2019-04-20T23:46:22.316Z,7.10
2019-04-20T23:49:06.616Z,7.00
2019-04-20T23:51:54.209Z,7.00
2019-04-20T23:54:12.560Z,7.00
2019-04-20T23:56:35.535Z,7.00
2019-04-20T23:59:04.474Z,7.10
